Aérodrome :
LOGIN :

S'inscrire | Disclaimer

   EN    FR    IT 

 










Légende :    VFR   VFR Marginal   IFR   IFR Intensif   IFR Très Intensif
Visi : 
Plafond : 
>= 8 km
>= 3000ft
5 à 8 km
1000 à 3000 ft
1500m à 5 km
500 à 1000 ft
800 à 1500m
200 à 500 ft
< 800m
< 200 ft
Symboles :   Orages  Brouillard  Fortes neiges  Fortes précipitations  Vent > 20 kt
SIGMETs :   Divers  Orages  Givrage  Turbulence  Onde Orograph.  Cendres Volcan.






- Altitude de l'aérodrome : 147 ft
- Code IATA : DUS


EDDL - Düsseldorf Int.

DERNIER METAR :
  • 010120Z 20007KT 5000 -RADZ OVC007 05/04 Q1012 NOSIG

METARs EXPIRÉS :
  • 010050Z 21009KT 9999 OVC007 05/04 Q1013 NOSIG
  • 010020Z 20009KT 6000 -DZRA OVC007 05/04 Q1013 NOSIG
  • 302350Z 22009KT 6000 -DZRA OVC007 05/04 Q1013 NOSIG
  • 302320Z 21010KT 6000 -DZRA OVC007 05/04 Q1013 NOSIG
  • 302250Z 21012KT 6000 -DZRA OVC007 05/04 Q1014 NOSIG

TAF TAF EDDL
Valide du 01 à 00h jusqu'au 02 à 06h UTC


302300Z 0100/0206 24011KT 7000 OVC007
TEMPO 0100/0104 2500 RADZ BKN004
BECMG 0103/0106 27005KT
BECMG 0107/0109 4000 -DZ BR
TEMPO 0108/0123 1500 DZ OVC004
BECMG 0115/0117 02005KT
BECMG 0200/0203 6000 BKN020



MET'MAP, la Météo Aéronautique d'un coup d'oeil ! - Copyright ORBIFLY Décembre 2007 - Disclaimer

ORBIFLY MET'MAP TEAM :

Programmation & Développement : Alexandra Zaïnal
Sur une idée originale de : Baudouin d'Aumeries
Assistance à la programmation : Marc-Olivier Méhu
Soutien technique & logistique : Manuel Goepfert

Contact : metmap@orbifly.com




SOURCES & CREDITS :

   NOAA